Auburn, Nebraska
Current Conditions -  °F | °C
As of 8:35 AM on Thursday 27 Nov 2014 (Local Time) from KAFK Reporting Station
Overcast Overcast  
Wind Chill: 18°   Ceiling: 7000
Heat Index: 18°   Visibility: 10mi
Dew Point: 10°   Wind: 3mph
Humidity: 70%   Direction: 20°NNE
Pressure: 30.53"   Gusts: NA
Location:  40.39°N, 95.84°W
Report Text: KAFK 271435Z AUTO 02003KT 10SM OVC070 M08/M12 A3053 RMK AO2 T10771123
Loading
Personal Weather Stations






























Interactive Weather Map New forecast layout! Learn more

10-Day Weather Forecast

Advertisements
Track Severe Weather on mobile